createdAt,value
2023-02-14T00:01:01.170Z,3.233947754
2023-02-14T00:02:01.661Z,3.233947754
2023-02-14T00:03:02.405Z,3.233947754
2023-02-14T00:04:03.017Z,3.304443359
2023-02-14T00:05:03.753Z,3.334655762
2023-02-14T00:06:04.436Z,3.284301758
2023-02-14T00:07:05.887Z,3.254089355
2023-02-14T00:08:06.598Z,3.223876953
2023-02-14T00:09:07.260Z,3.173522949
2023-02-14T00:10:07.925Z,3.173522949
2023-02-14T00:11:09.417Z,3.153381348
2023-02-14T00:12:10.065Z,3.123168945
2023-02-14T00:13:11.023Z,3.082885742
2023-02-14T00:14:11.595Z,3.082885742
2023-02-14T00:15:12.432Z,3.082885742
2023-02-14T00:16:43.720Z,3.072814941
2023-02-14T00:17:45.239Z,3.072814941
2023-02-14T00:18:45.975Z,3.042602539
2023-02-14T00:19:46.719Z,3.022460938
2023-02-14T00:20:47.449Z,3.022460938
2023-02-14T00:21:48.136Z,3.022460938
2023-02-14T00:22:48.889Z,3.022460938
2023-02-14T00:23:49.648Z,3.022460938
2023-02-14T00:24:50.306Z,3.022460938
2023-02-14T00:25:50.975Z,3.012390137
2023-02-14T00:26:51.812Z,2.992248535
2023-02-14T00:27:53.185Z,2.982177734
2023-02-14T00:28:53.850Z,2.972106934
2023-02-14T00:29:54.601Z,2.951965332
2023-02-14T00:30:55.926Z,2.992248535
2023-02-14T00:31:56.666Z,3.012390137
2023-02-14T00:32:57.209Z,2.992248535
2023-02-14T00:33:57.828Z,3.022460938
2023-02-14T00:34:58.389Z,3.012390137
2023-02-14T00:35:59.873Z,2.992248535
2023-02-14T00:37:01.343Z,3.022460938
2023-02-14T00:38:01.896Z,3.012390137
2023-02-14T00:39:03.429Z,2.982177734
2023-02-14T00:40:04.030Z,2.982177734
2023-02-14T00:41:04.637Z,2.992248535
2023-02-14T00:42:05.298Z,3.012390137
2023-02-14T00:43:05.952Z,2.992248535
2023-02-14T00:44:06.710Z,2.972106934
2023-02-14T00:45:07.461Z,2.982177734
2023-02-14T00:46:08.161Z,2.982177734
2023-02-14T00:47:09.401Z,2.982177734
2023-02-14T00:48:10.397Z,2.982177734
2023-02-14T00:49:11.106Z,2.972106934
2023-02-14T00:50:11.803Z,2.972106934
2023-02-14T00:51:12.860Z,2.972106934
2023-02-14T00:52:43.967Z,2.992248535
2023-02-14T00:53:44.580Z,3.012390137
2023-02-14T00:54:45.278Z,3.022460938
2023-02-14T00:55:45.889Z,2.982177734
2023-02-14T00:56:46.562Z,2.982177734
2023-02-14T00:57:48.235Z,2.982177734
2023-02-14T00:58:48.871Z,2.982177734
2023-02-14T00:59:49.617Z,2.982177734
2023-02-14T01:00:50.973Z,2.992248535
2023-02-14T01:01:51.646Z,3.042602539
2023-02-14T01:02:52.298Z,3.022460938
2023-02-14T01:03:53.145Z,3.042602539
2023-02-14T01:04:53.839Z,3.022460938
2023-02-14T01:05:54.539Z,3.022460938
2023-02-14T01:06:55.174Z,3.082885742
2023-02-14T01:07:56.641Z,3.103027344
2023-02-14T01:08:57.332Z,3.133239746
2023-02-14T01:09:58.052Z,3.133239746
2023-02-14T01:10:59.128Z,3.163452148
2023-02-14T01:11:59.381Z,3.163452148
2023-02-14T01:13:00.035Z,3.133239746
2023-02-14T01:14:00.706Z,3.072814941
2023-02-14T01:15:01.484Z,3.012390137
2023-02-14T01:16:02.262Z,2.972106934
2023-02-14T01:17:02.838Z,2.951965332
2023-02-14T01:18:04.191Z,2.941894531
2023-02-14T01:19:04.887Z,2.92175293
2023-02-14T01:20:05.603Z,2.901611328
2023-02-14T01:21:06.299Z,2.92175293
2023-02-14T01:22:06.971Z,2.92175293
2023-02-14T01:23:07.599Z,2.891540527
2023-02-14T01:24:08.288Z,2.871398926
2023-02-14T01:25:09.029Z,2.871398926
2023-02-14T01:26:09.764Z,2.861328125
2023-02-14T01:27:10.612Z,2.861328125
2023-02-14T01:28:12.627Z,2.831115723
2023-02-14T01:29:43.578Z,2.810974121
2023-02-14T01:30:44.465Z,2.831115723
2023-02-14T01:31:45.705Z,2.810974121
2023-02-14T01:32:46.384Z,2.80090332
2023-02-14T01:33:47.053Z,2.810974121
2023-02-14T01:34:47.732Z,2.80090332
2023-02-14T01:35:48.466Z,2.831115723
2023-02-14T01:36:49.230Z,2.810974121
2023-02-14T01:37:50.877Z,2.810974121
2023-02-14T01:38:51.648Z,2.80090332
2023-02-14T01:39:52.300Z,2.80090332
2023-02-14T01:40:52.965Z,2.79083252
2023-02-14T01:41:53.770Z,2.760620117
2023-02-14T01:42:54.485Z,2.730407715
2023-02-14T01:43:55.251Z,2.740478516
2023-02-14T01:44:55.904Z,2.770690918
2023-02-14T01:45:56.597Z,2.760620117
2023-02-14T01:46:57.266Z,2.730407715
2023-02-14T01:47:58.930Z,2.730407715
2023-02-14T01:48:59.784Z,2.690124512
2023-02-14T01:50:00.419Z,2.710266113
2023-02-14T01:51:01.360Z,2.680053711
2023-02-14T01:52:03.885Z,2.680053711
2023-02-14T01:53:02.581Z,2.680053711
2023-02-14T01:54:03.346Z,2.659912109
2023-02-14T01:55:04.021Z,2.649841309
2023-02-14T01:56:04.811Z,2.629699707
2023-02-14T01:57:05.428Z,2.629699707
2023-02-14T01:58:06.900Z,2.609558105
2023-02-14T01:59:07.564Z,2.579345703
2023-02-14T02:00:08.282Z,2.579345703
2023-02-14T02:01:09.966Z,2.609558105
2023-02-14T02:02:10.736Z,2.609558105
2023-02-14T02:03:11.453Z,2.559204102
2023-02-14T02:04:42.844Z,2.549133301
2023-02-14T02:05:43.612Z,2.559204102
2023-02-14T02:06:44.235Z,2.549133301
2023-02-14T02:07:45.400Z,2.559204102
2023-02-14T02:08:46.158Z,2.528991699
2023-02-14T02:09:46.966Z,2.528991699
2023-02-14T02:10:47.613Z,2.478637695
2023-02-14T02:11:48.906Z,2.478637695
2023-02-14T02:12:49.576Z,2.448425293
2023-02-14T02:13:50.286Z,2.428283691
2023-02-14T02:14:51.045Z,2.448425293
2023-02-14T02:15:51.831Z,2.448425293
2023-02-14T02:16:52.533Z,2.448425293
2023-02-14T02:17:53.884Z,2.448425293
2023-02-14T02:18:54.595Z,2.448425293
2023-02-14T02:19:55.299Z,2.438354492
2023-02-14T02:20:56.007Z,2.438354492
2023-02-14T02:21:56.692Z,2.468566895
2023-02-14T02:22:57.369Z,2.478637695
2023-02-14T02:23:58.006Z,2.478637695
2023-02-14T02:24:58.718Z,2.478637695
2023-02-14T02:25:59.461Z,2.498779297
2023-02-14T02:27:00.154Z,2.498779297
2023-02-14T02:28:01.852Z,2.478637695
2023-02-14T02:29:02.541Z,2.498779297
2023-02-14T02:30:03.353Z,2.528991699
2023-02-14T02:31:05.125Z,2.549133301
2023-02-14T02:32:05.840Z,2.528991699
2023-02-14T02:33:06.364Z,2.549133301
2023-02-14T02:34:07.078Z,2.559204102
2023-02-14T02:35:07.692Z,2.589416504
2023-02-14T02:36:08.463Z,2.629699707
2023-02-14T02:37:09.256Z,2.619628906
2023-02-14T02:38:10.773Z,2.629699707
2023-02-14T02:39:11.946Z,2.649841309
2023-02-14T02:40:43.565Z,2.629699707
2023-02-14T02:41:44.865Z,2.609558105
2023-02-14T02:42:45.628Z,2.619628906
2023-02-14T02:43:46.304Z,2.609558105
2023-02-14T02:44:46.963Z,2.609558105
2023-02-14T02:45:47.694Z,2.629699707
2023-02-14T02:46:48.342Z,2.629699707
2023-02-14T02:47:49.119Z,2.629699707
2023-02-14T02:48:50.755Z,2.629699707
2023-02-14T02:49:51.534Z,2.559204102
2023-02-14T02:50:52.227Z,2.478637695
2023-02-14T02:51:53.031Z,2.448425293
2023-02-14T02:52:53.646Z,2.438354492
2023-02-14T02:53:54.418Z,2.428283691
2023-02-14T02:54:55.186Z,2.428283691
2023-02-14T02:55:55.845Z,2.428283691
2023-02-14T02:56:56.535Z,2.438354492
2023-02-14T02:57:57.295Z,2.468566895
2023-02-14T02:58:58.820Z,2.498779297
2023-02-14T02:59:59.583Z,2.508850098
2023-02-14T03:01:01.383Z,2.528991699
2023-02-14T03:02:01.669Z,2.549133301
2023-02-14T03:03:02.587Z,2.528991699
2023-02-14T03:04:03.309Z,2.528991699
2023-02-14T03:05:04.055Z,2.508850098
2023-02-14T03:06:05.382Z,2.478637695
2023-02-14T03:07:06.076Z,2.448425293
2023-02-14T03:08:06.738Z,2.428283691
2023-02-14T03:09:08.354Z,2.398071289
2023-02-14T03:10:09.211Z,2.367858887
2023-02-14T03:11:09.972Z,2.357788086
2023-02-14T03:12:10.763Z,2.317504883
2023-02-14T03:13:42.076Z,2.297363281
2023-02-14T03:14:42.840Z,2.267150879
2023-02-14T03:15:43.537Z,2.28729248
2023-02-14T03:16:44.292Z,2.317504883
2023-02-14T03:17:44.972Z,2.28729248
2023-02-14T03:18:46.163Z,2.357788086
2023-02-14T03:19:46.952Z,2.398071289
2023-02-14T03:20:47.696Z,2.438354492
2023-02-14T03:21:48.425Z,2.478637695
2023-02-14T03:22:49.081Z,2.468566895
2023-02-14T03:23:49.781Z,2.448425293
2023-02-14T03:24:50.580Z,2.478637695
2023-02-14T03:25:51.435Z,2.438354492
2023-02-14T03:26:52.127Z,2.428283691
2023-02-14T03:27:53.369Z,2.438354492
2023-02-14T03:28:54.917Z,2.428283691
2023-02-14T03:29:55.679Z,2.428283691
2023-02-14T03:30:56.606Z,2.40814209
2023-02-14T03:31:58.008Z,2.438354492
2023-02-14T03:32:58.666Z,2.438354492
2023-02-14T03:33:59.423Z,2.498779297
2023-02-14T03:35:00.160Z,2.498779297
2023-02-14T03:36:01.011Z,2.498779297
2023-02-14T03:37:01.824Z,2.478637695
2023-02-14T03:38:02.552Z,2.468566895
2023-02-14T03:39:04.217Z,2.468566895
2023-02-14T03:40:04.886Z,2.468566895
2023-02-14T03:41:05.616Z,2.468566895
2023-02-14T03:42:06.474Z,2.448425293
2023-02-14T03:43:07.055Z,2.428283691
2023-02-14T03:44:07.707Z,2.428283691
2023-02-14T03:45:08.549Z,2.40814209
2023-02-14T03:46:09.296Z,2.398071289
2023-02-14T03:47:10.009Z,2.448425293
2023-02-14T03:48:42.384Z,2.438354492
2023-02-14T03:49:43.114Z,2.438354492
2023-02-14T03:50:43.819Z,2.428283691
2023-02-14T03:51:44.628Z,2.428283691
2023-02-14T03:52:45.475Z,2.40814209
2023-02-14T03:53:46.241Z,2.428283691
2023-02-14T03:54:46.936Z,2.398071289
2023-02-14T03:55:47.674Z,2.377929688
2023-02-14T03:56:48.394Z,2.357788086
2023-02-14T03:57:49.123Z,2.317504883
2023-02-14T03:58:51.123Z,2.317504883
2023-02-14T03:59:52.752Z,2.367858887
2023-02-14T04:00:53.278Z,2.367858887
2023-02-14T04:01:54.051Z,2.327575684
2023-02-14T04:02:55.244Z,2.317504883
2023-02-14T04:03:55.881Z,2.317504883
2023-02-14T04:04:56.321Z,2.28729248
2023-02-14T04:05:56.985Z,2.267150879
2023-02-14T04:06:57.431Z,2.297363281
2023-02-14T04:07:57.897Z,2.28729248
2023-02-14T04:08:59.335Z,2.28729248
2023-02-14T04:09:59.856Z,2.257080078
2023-02-14T04:11:00.944Z,2.216796875
2023-02-14T04:12:01.118Z,2.176513672
2023-02-14T04:13:01.583Z,2.116088867
2023-02-14T04:14:02.462Z,2.116088867
2023-02-14T04:15:03.046Z,2.136230469
2023-02-14T04:16:04.359Z,2.136230469
2023-02-14T04:17:04.966Z,2.116088867
2023-02-14T04:18:05.446Z,2.106018066
2023-02-14T04:19:06.987Z,2.085876465
2023-02-14T04:20:07.554Z,2.065734863
2023-02-14T04:21:08.052Z,2.065734863
2023-02-14T04:22:08.872Z,2.065734863
2023-02-14T04:23:09.481Z,2.075805664
2023-02-14T04:24:09.925Z,2.065734863
2023-02-14T04:25:41.175Z,2.116088867
2023-02-14T04:26:41.686Z,2.116088867
2023-02-14T04:27:42.422Z,2.106018066
2023-02-14T04:28:43.803Z,2.136230469
2023-02-14T04:29:44.404Z,2.136230469
2023-02-14T04:30:45.081Z,2.136230469
2023-02-14T04:31:46.640Z,2.136230469
2023-02-14T04:32:47.217Z,2.136230469
2023-02-14T04:33:47.647Z,2.14630127
2023-02-14T04:34:49.170Z,2.176513672
2023-02-14T04:35:49.774Z,2.186584473
2023-02-14T04:36:50.331Z,2.176513672
2023-02-14T04:37:51.012Z,2.136230469
2023-02-14T04:38:52.326Z,2.106018066
2023-02-14T04:39:52.820Z,2.085876465
2023-02-14T04:40:53.336Z,2.085876465
2023-02-14T04:41:53.972Z,2.045593262
2023-02-14T04:42:54.610Z,2.035522461
2023-02-14T04:43:55.128Z,2.005310059
2023-02-14T04:44:55.813Z,2.005310059
2023-02-14T04:45:56.282Z,2.005310059
2023-02-14T04:46:56.887Z,2.005310059
2023-02-14T04:47:57.378Z,1.995239258
2023-02-14T04:48:58.879Z,1.954956055
2023-02-14T04:49:59.436Z,1.954956055
2023-02-14T04:51:00.108Z,1.954956055
2023-02-14T04:52:00.579Z,1.954956055
2023-02-14T04:53:01.435Z,1.995239258
2023-02-14T04:54:01.926Z,1.995239258
2023-02-14T04:55:02.593Z,1.954956055
2023-02-14T04:56:04.018Z,1.934814453
2023-02-14T04:57:04.552Z,1.924743652
2023-02-14T04:58:05.057Z,1.924743652
2023-02-14T04:59:06.329Z,1.924743652
2023-02-14T05:00:06.832Z,1.934814453
2023-02-14T05:01:07.339Z,1.995239258
2023-02-14T05:02:07.915Z,2.005310059
2023-02-14T05:03:09.099Z,2.005310059
2023-02-14T05:04:10.483Z,2.005310059
2023-02-14T05:05:41.324Z,1.995239258
2023-02-14T05:06:41.835Z,1.995239258
2023-02-14T05:07:42.386Z,1.975097656
2023-02-14T05:08:42.951Z,1.975097656
2023-02-14T05:09:44.117Z,1.975097656
2023-02-14T05:10:44.621Z,2.035522461
2023-02-14T05:11:46.145Z,2.045593262
2023-02-14T05:12:46.777Z,2.075805664
2023-02-14T05:13:47.373Z,2.075805664
2023-02-14T05:14:47.904Z,2.075805664
2023-02-14T05:15:48.319Z,2.075805664
2023-02-14T05:16:48.875Z,2.085876465
2023-02-14T05:17:50.000Z,2.075805664
2023-02-14T05:18:50.524Z,2.045593262
2023-02-14T05:19:51.560Z,2.015380859
2023-02-14T05:20:52.006Z,2.035522461
2023-02-14T05:21:52.569Z,2.015380859
2023-02-14T05:22:53.010Z,1.995239258
2023-02-14T05:23:53.553Z,1.975097656
2023-02-14T05:24:54.083Z,2.005310059
2023-02-14T05:25:54.496Z,1.954956055
2023-02-14T05:26:54.977Z,1.975097656
2023-02-14T05:27:55.436Z,1.995239258
2023-02-14T05:28:55.952Z,2.015380859
2023-02-14T05:29:57.042Z,1.995239258
2023-02-14T05:30:57.606Z,1.995239258
2023-02-14T05:31:58.790Z,1.975097656
2023-02-14T05:32:59.995Z,1.924743652
2023-02-14T05:34:00.527Z,1.924743652
2023-02-14T05:35:01.365Z,1.934814453
2023-02-14T05:36:01.561Z,1.954956055
2023-02-14T05:37:02.687Z,1.934814453
2023-02-14T05:38:03.140Z,1.934814453
2023-02-14T05:39:03.614Z,1.924743652
2023-02-14T05:40:05.018Z,1.89453125
2023-02-14T05:41:06.345Z,1.884460449
2023-02-14T05:42:06.919Z,1.854248047
2023-02-14T05:43:07.383Z,1.884460449
2023-02-14T05:44:07.834Z,1.904602051
2023-02-14T05:45:08.298Z,1.89453125
2023-02-14T05:46:08.790Z,1.904602051
2023-02-14T05:47:39.963Z,1.934814453
2023-02-14T05:48:40.661Z,1.975097656
2023-02-14T05:49:41.792Z,2.005310059
2023-02-14T05:50:42.265Z,1.975097656
2023-02-14T05:51:42.797Z,1.954956055
2023-02-14T05:52:43.215Z,1.934814453
2023-02-14T05:53:43.680Z,1.934814453
2023-02-14T05:54:44.152Z,1.934814453
2023-02-14T05:55:44.598Z,1.924743652
2023-02-14T05:56:46.113Z,1.924743652
2023-02-14T05:57:46.547Z,1.904602051
2023-02-14T05:58:47.106Z,1.904602051
2023-02-14T05:59:48.318Z,1.864318848
2023-02-14T06:00:48.782Z,1.834106445
2023-02-14T06:01:49.312Z,1.824035645
2023-02-14T06:02:50.322Z,1.813964844
2023-02-14T06:03:50.830Z,1.743469238
2023-02-14T06:04:51.413Z,1.813964844
2023-02-14T06:05:51.793Z,1.864318848
2023-02-14T06:06:53.007Z,1.904602051
2023-02-14T06:07:53.495Z,1.924743652
2023-02-14T06:08:53.967Z,1.954956055
2023-02-14T06:09:54.376Z,2.005310059
2023-02-14T06:10:54.883Z,1.975097656
2023-02-14T06:11:56.023Z,1.954956055
2023-02-14T06:12:57.169Z,1.934814453
2023-02-14T06:13:57.694Z,1.924743652
2023-02-14T06:14:58.130Z,1.904602051
2023-02-14T06:15:58.694Z,1.884460449
2023-02-14T06:17:00.145Z,1.864318848
2023-02-14T06:18:00.549Z,1.854248047
2023-02-14T06:19:01.107Z,1.824035645
2023-02-14T06:20:02.565Z,1.813964844
2023-02-14T06:21:03.044Z,1.773681641
2023-02-14T06:22:04.009Z,1.813964844
2023-02-14T06:23:04.527Z,1.813964844
2023-02-14T06:24:05.028Z,1.793823242
2023-02-14T06:25:06.398Z,1.753540039
2023-02-14T06:26:06.905Z,1.743469238
2023-02-14T06:27:07.391Z,1.753540039
2023-02-14T06:28:07.888Z,1.743469238
2023-02-14T06:29:40.298Z,1.743469238
2023-02-14T06:30:41.091Z,1.753540039
2023-02-14T06:31:41.606Z,1.723327637
2023-02-14T06:32:42.388Z,1.743469238
2023-02-14T06:33:42.844Z,1.743469238
2023-02-14T06:34:43.320Z,1.713256836
2023-02-14T06:35:43.899Z,1.723327637
2023-02-14T06:36:44.346Z,1.743469238
2023-02-14T06:37:44.881Z,1.723327637
2023-02-14T06:38:45.304Z,1.723327637
2023-02-14T06:39:46.572Z,1.753540039
2023-02-14T06:40:48.119Z,1.753540039
2023-02-14T06:41:48.573Z,1.753540039
2023-02-14T06:42:49.531Z,1.743469238
2023-02-14T06:43:49.995Z,1.723327637
2023-02-14T06:44:50.408Z,1.743469238
2023-02-14T06:45:51.031Z,1.753540039
2023-02-14T06:46:51.361Z,1.743469238
2023-02-14T06:47:51.824Z,1.723327637
2023-02-14T06:48:52.254Z,1.723327637
2023-02-14T06:49:53.292Z,1.713256836
2023-02-14T06:50:53.840Z,1.713256836
2023-02-14T06:51:54.291Z,1.713256836
2023-02-14T06:52:54.783Z,1.683044434
2023-02-14T06:53:55.286Z,1.683044434
2023-02-14T06:54:55.742Z,1.683044434
2023-02-14T06:55:56.334Z,1.713256836
2023-02-14T06:56:56.770Z,1.743469238
2023-02-14T06:57:57.857Z,1.753540039
2023-02-14T06:58:58.235Z,1.824035645
2023-02-14T06:59:59.295Z,1.884460449
2023-02-14T07:01:00.232Z,1.864318848
2023-02-14T07:02:00.291Z,1.884460449
2023-02-14T07:03:00.937Z,1.854248047
2023-02-14T07:04:02.028Z,1.854248047
2023-02-14T07:05:02.564Z,1.854248047
2023-02-14T07:06:03.059Z,1.89453125
2023-02-14T07:07:03.523Z,1.954956055
2023-02-14T07:08:04.175Z,1.975097656
2023-02-14T07:09:04.507Z,1.954956055
2023-02-14T07:10:05.823Z,1.924743652
2023-02-14T07:11:06.223Z,1.954956055
2023-02-14T07:12:06.641Z,1.954956055
2023-02-14T07:13:07.336Z,1.995239258
2023-02-14T07:14:07.744Z,2.015380859
2023-02-14T07:15:39.041Z,2.035522461
2023-02-14T07:16:39.389Z,2.035522461
2023-02-14T07:17:39.922Z,2.015380859
2023-02-14T07:18:40.716Z,2.015380859
2023-02-14T07:19:41.104Z,2.035522461
2023-02-14T07:20:42.734Z,2.065734863
2023-02-14T07:21:43.167Z,2.065734863
2023-02-14T07:22:43.637Z,2.065734863
2023-02-14T07:23:45.021Z,2.045593262
2023-02-14T07:24:45.523Z,2.045593262
2023-02-14T07:25:46.000Z,2.045593262
2023-02-14T07:26:47.065Z,2.045593262
2023-02-14T07:27:47.537Z,2.065734863
2023-02-14T07:28:48.017Z,2.065734863
2023-02-14T07:29:48.683Z,2.065734863
2023-02-14T07:30:50.170Z,2.085876465
2023-02-14T07:31:51.548Z,2.14630127
2023-02-14T07:32:52.790Z,2.14630127
2023-02-14T07:33:53.279Z,2.176513672
2023-02-14T07:34:53.792Z,2.176513672
2023-02-14T07:35:54.233Z,2.14630127
2023-02-14T07:36:55.573Z,2.14630127
2023-02-14T07:37:56.021Z,2.186584473
2023-02-14T07:38:56.487Z,2.186584473
2023-02-14T07:39:56.979Z,2.186584473
2023-02-14T07:40:57.613Z,2.186584473
2023-02-14T07:41:58.636Z,2.226867676
2023-02-14T07:42:59.092Z,2.257080078
2023-02-14T07:44:00.496Z,2.267150879
2023-02-14T07:45:09.411Z,2.297363281
2023-02-14T07:46:01.584Z,2.327575684
2023-02-14T07:47:02.068Z,2.367858887
2023-02-14T07:48:02.517Z,2.377929688
2023-02-14T07:49:03.068Z,2.40814209
2023-02-14T07:50:03.533Z,2.428283691
2023-02-14T07:51:04.558Z,2.438354492
2023-02-14T07:52:05.088Z,2.468566895
2023-02-14T07:53:05.518Z,2.478637695
2023-02-14T07:54:06.018Z,2.498779297
2023-02-14T07:55:07.314Z,2.528991699
2023-02-14T07:56:38.335Z,2.559204102
2023-02-14T07:57:38.888Z,2.549133301
2023-02-14T07:58:39.328Z,2.559204102
2023-02-14T07:59:39.825Z,2.609558105
2023-02-14T08:00:40.790Z,2.619628906
2023-02-14T08:01:41.368Z,2.659912109
2023-02-14T08:02:41.806Z,2.680053711
2023-02-14T08:03:42.821Z,2.730407715
2023-02-14T08:04:43.371Z,2.760620117
2023-02-14T08:05:44.480Z,2.80090332
2023-02-14T08:06:44.939Z,2.810974121
2023-02-14T08:07:45.383Z,2.831115723
2023-02-14T08:08:45.870Z,2.861328125
2023-02-14T08:09:46.351Z,2.871398926
2023-02-14T08:10:47.270Z,2.901611328
2023-02-14T08:11:47.793Z,2.871398926
2023-02-14T08:12:48.265Z,2.891540527
2023-02-14T08:13:48.729Z,2.891540527
2023-02-14T08:14:49.238Z,2.92175293
2023-02-14T08:15:49.685Z,2.951965332
2023-02-14T08:16:50.140Z,2.992248535
2023-02-14T08:17:50.698Z,3.082885742
2023-02-14T08:18:51.812Z,3.133239746
2023-02-14T08:19:52.321Z,3.173522949
2023-02-14T08:20:53.267Z,3.193664551
2023-02-14T08:21:53.761Z,3.193664551
2023-02-14T08:22:54.268Z,3.233947754
2023-02-14T08:23:54.781Z,3.223876953
2023-02-14T08:24:55.344Z,3.223876953
2023-02-14T08:25:55.808Z,3.254089355
2023-02-14T08:26:56.377Z,3.264160156
2023-02-14T08:27:56.817Z,3.264160156
2023-02-14T08:28:58.059Z,3.284301758
2023-02-14T08:29:58.749Z,3.31451416
2023-02-14T08:31:00.280Z,3.344726563
2023-02-14T08:32:00.492Z,3.385009766
2023-02-14T08:33:00.851Z,3.415222168
2023-02-14T08:34:02.272Z,3.44543457
2023-02-14T08:35:02.768Z,3.485717773
2023-02-14T08:36:03.391Z,3.536071777
2023-02-14T08:37:03.840Z,3.56628418
2023-02-14T08:38:04.261Z,3.636779785
2023-02-14T08:39:04.910Z,3.717346191
2023-02-14T08:40:05.903Z,3.717346191
2023-02-14T08:41:09.025Z,3.767700195
2023-02-14T08:42:38.182Z,3.797912598
2023-02-14T08:43:38.636Z,3.807983398
2023-02-14T08:44:39.109Z,3.807983398
2023-02-14T08:45:39.657Z,3.858337402
2023-02-14T08:46:40.149Z,3.898620605
2023-02-14T08:47:40.867Z,3.918762207
2023-02-14T08:48:41.326Z,3.948974609
2023-02-14T08:49:41.814Z,3.979187012
2023-02-14T08:50:43.300Z,3.999328613
2023-02-14T08:51:43.789Z,4.039611816
2023-02-14T08:52:44.389Z,4.07989502
2023-02-14T08:53:44.836Z,4.160461426
2023-02-14T08:54:45.277Z,4.180603027
2023-02-14T08:55:45.911Z,4.21081543
2023-02-14T08:56:46.434Z,4.241027832
2023-02-14T08:57:46.947Z,4.251098633
2023-02-14T08:58:47.399Z,4.251098633
2023-02-14T08:59:47.881Z,4.241027832
2023-02-14T09:00:49.339Z,4.241027832
2023-02-14T09:01:49.736Z,4.251098633
2023-02-14T09:02:50.345Z,4.261169434
2023-02-14T09:03:51.381Z,4.291381836
2023-02-14T09:04:51.713Z,4.311523438
2023-02-14T09:05:52.321Z,4.311523438
2023-02-14T09:06:52.834Z,4.321594238
2023-02-14T09:07:53.344Z,4.311523438
2023-02-14T09:08:53.906Z,4.34173584
2023-02-14T09:09:54.417Z,4.34173584
2023-02-14T09:10:55.851Z,4.34173584
2023-02-14T09:11:56.344Z,4.351806641
2023-02-14T09:12:56.762Z,4.382019043
2023-02-14T09:13:57.238Z,4.432373047
2023-02-14T09:14:57.732Z,4.432373047
2023-02-14T09:15:58.373Z,4.422302246
2023-02-14T09:16:58.774Z,4.442443848
2023-02-14T09:17:59.315Z,4.442443848
2023-02-14T09:18:59.760Z,4.442443848
2023-02-14T09:20:00.288Z,4.462585449
2023-02-14T09:21:01.759Z,4.47265625
2023-02-14T09:22:01.915Z,4.492797852
2023-02-14T09:23:02.316Z,4.502868652
2023-02-14T09:24:02.897Z,4.512939453
2023-02-14T09:25:03.375Z,4.543151855
2023-02-14T09:26:03.851Z,4.593505859
2023-02-14T09:27:04.359Z,4.623718262
2023-02-14T09:28:04.853Z,4.653930664
2023-02-14T09:29:05.371Z,4.674072266
2023-02-14T09:30:05.944Z,4.684143066
2023-02-14T09:31:06.327Z,4.72442627
2023-02-14T09:32:37.855Z,4.754638672
2023-02-14T09:33:38.289Z,4.794921875
2023-02-14T09:34:38.880Z,4.774780273
2023-02-14T09:35:39.377Z,4.804992676
2023-02-14T09:36:40.798Z,4.804992676
2023-02-14T09:37:41.568Z,4.835205078
2023-02-14T09:38:42.080Z,4.85534668
2023-02-14T09:39:42.605Z,4.85534668
2023-02-14T09:40:43.179Z,4.875488281
2023-02-14T09:41:44.479Z,4.895629883
2023-02-14T09:42:45.031Z,4.905700684
2023-02-14T09:43:45.494Z,4.935913086
2023-02-14T09:44:46.067Z,4.966125488
2023-02-14T09:45:46.747Z,4.966125488
2023-02-14T09:46:47.157Z,4.966125488
2023-02-14T09:47:47.766Z,4.98626709
2023-02-14T09:48:48.313Z,5.006408691
2023-02-14T09:49:48.917Z,5.006408691
2023-02-14T09:50:49.274Z,5.036621094
2023-02-14T09:51:49.793Z,5.046691895
2023-02-14T09:52:51.011Z,5.046691895
2023-02-14T09:53:51.542Z,5.086975098
2023-02-14T09:54:52.004Z,5.076904297
2023-02-14T09:55:52.437Z,5.107116699
2023-02-14T09:56:52.925Z,5.1171875
2023-02-14T09:57:53.358Z,5.137329102
2023-02-14T09:58:54.576Z,5.137329102
2023-02-14T09:59:55.093Z,5.147399902
2023-02-14T10:00:55.569Z,5.167541504
2023-02-14T10:01:57.134Z,5.187683105
2023-02-14T10:02:57.473Z,5.217895508
2023-02-14T10:03:58.832Z,5.227966309
2023-02-14T10:04:59.294Z,5.227966309
2023-02-14T10:05:59.794Z,5.258178711
2023-02-14T10:07:01.038Z,5.268249512
2023-02-14T10:08:01.572Z,5.298461914
2023-02-14T10:09:02.154Z,5.298461914
2023-02-14T10:10:02.620Z,5.348815918
2023-02-14T10:11:03.076Z,5.36895752
2023-02-14T10:12:04.674Z,5.399169922
2023-02-14T10:13:05.048Z,5.409240723
2023-02-14T10:14:05.570Z,5.449523926
2023-02-14T10:15:36.898Z,5.479736328
2023-02-14T10:16:37.384Z,5.50994873
2023-02-14T10:17:38.139Z,5.550231934
2023-02-14T10:18:38.688Z,5.560302734
2023-02-14T10:19:39.146Z,5.620727539
2023-02-14T10:20:39.782Z,5.650939941
2023-02-14T10:21:41.283Z,5.661010742
2023-02-14T10:22:41.806Z,5.671081543
2023-02-14T10:23:42.262Z,5.701293945
2023-02-14T10:24:42.718Z,5.741577148
2023-02-14T10:25:43.372Z,5.771789551
2023-02-14T10:26:43.877Z,5.781860352
2023-02-14T10:27:44.403Z,5.812072754
2023-02-14T10:28:44.960Z,5.852355957
2023-02-14T10:29:45.418Z,5.872497559
2023-02-14T10:30:46.098Z,5.902709961
2023-02-14T10:31:47.126Z,5.922851563
2023-02-14T10:32:48.047Z,5.953063965
2023-02-14T10:33:48.643Z,5.993347168
2023-02-14T10:34:49.133Z,6.02355957
2023-02-14T10:35:49.619Z,6.063842773
2023-02-14T10:36:50.827Z,6.083984375
2023-02-14T10:37:51.439Z,6.104125977
2023-02-14T10:38:51.852Z,6.14440918
2023-02-14T10:39:52.323Z,6.164550781
2023-02-14T10:40:52.878Z,6.204833984
2023-02-14T10:41:54.269Z,6.235046387
2023-02-14T10:42:54.735Z,6.245117188
2023-02-14T10:43:55.370Z,6.27532959
2023-02-14T10:44:55.927Z,6.295471191
2023-02-14T10:45:56.431Z,6.325683594
2023-02-14T10:46:56.840Z,6.325683594
2023-02-14T10:47:58.422Z,6.345825195
2023-02-14T10:48:58.877Z,6.376037598
2023-02-14T10:49:59.351Z,6.386108398
2023-02-14T10:51:00.219Z,6.396179199
2023-02-14T10:52:01.129Z,6.396179199
2023-02-14T10:53:01.834Z,6.426391602
2023-02-14T10:54:02.265Z,6.426391602
2023-02-14T10:55:02.765Z,6.426391602
2023-02-14T10:56:03.203Z,6.446533203
2023-02-14T10:57:03.712Z,6.446533203
2023-02-14T10:58:04.465Z,6.456604004
2023-02-14T10:59:04.933Z,6.446533203
2023-02-14T11:00:05.833Z,6.496887207
2023-02-14T11:01:37.333Z,6.506958008
2023-02-14T11:02:37.763Z,6.53717041
2023-02-14T11:03:38.433Z,6.53717041
2023-02-14T11:04:38.872Z,6.567382813
2023-02-14T11:05:39.355Z,6.577453613